ENRS/RET METAR and TAF weather

Enter ICAO airport designator
Station Type Date Time Source
ENRS METAR 2021/07/29 17:50 UTC NOAA

ENRS 291750Z 01027KT 9999 BKN008 09/08 Q0999


Station Type Date Time Source
ENRS Decoded METAR 2021/07/29 17:50 UTC NOAA

Rost Flyplass, Norway (ENRS) 67-31N 012-06E
Jul 29, 2021 - 01:50 PM EDT / 2021.07.29 1750 UTC
Wind: from the N (010 degrees) at 31 MPH (27 KT):0
Visibility: greater than 7 mile(s):0
Sky conditions: mostly cloudy
Temperature: 48 F (9 C)
Dew Point: 46 F (8 C)
Relative Humidity: 93%
Pressure (altimeter): 29.50 in. Hg (0999 hPa)
ob: ENRS 291750Z 01027KT 9999 BKN008 09/08 Q0999
cycle: 18

Station Type Date Time Source
ENRS TAF UTC NOAA

Error!

Example: see airport list